createdAt,value
2019-04-23T00:04:24.006Z,4.80
2019-04-23T00:09:36.847Z,4.37
2019-04-23T00:14:52.049Z,4.63
2019-04-23T00:19:47.190Z,4.30
2019-04-23T00:30:18.706Z,4.57
2019-04-23T00:35:12.463Z,4.03
2019-04-23T00:40:25.843Z,4.63
2019-04-23T00:45:41.494Z,4.87
2019-04-23T00:50:52.197Z,4.13
2019-04-23T01:01:00.360Z,4.00
2019-04-23T01:06:18.516Z,4.10
2019-04-23T01:11:21.076Z,4.70
2019-04-23T01:16:14.979Z,4.20
2019-04-23T01:21:13.708Z,4.23
2019-04-23T01:26:42.124Z,4.30
2019-04-23T01:31:57.427Z,3.87
2019-04-23T01:36:58.974Z,4.50
2019-04-23T01:42:22.502Z,4.00
2019-04-23T01:47:18.618Z,4.57
2019-04-23T01:52:38.042Z,4.43
2019-04-23T01:57:47.205Z,4.90
2019-04-23T02:02:55.919Z,4.47
2019-04-23T02:07:56.966Z,4.43
2019-04-23T02:18:11.490Z,4.30
2019-04-23T02:23:26.576Z,4.37
2019-04-23T02:28:33.017Z,4.50
2019-04-23T02:44:15.240Z,4.00
2019-04-23T02:54:31.352Z,4.20
2019-04-23T02:59:44.605Z,4.50
2019-04-23T03:09:45.567Z,4.70
2019-04-23T03:15:00.864Z,4.90
2019-04-23T03:25:30.975Z,5.43
2019-04-23T03:41:07.068Z,5.30
2019-04-23T03:51:28.916Z,4.80
2019-04-23T03:56:44.776Z,4.63
2019-04-23T04:01:34.752Z,5.97
2019-04-23T04:12:13.951Z,4.63
2019-04-23T04:17:17.872Z,4.70
2019-04-23T04:22:38.057Z,4.43
2019-04-23T04:27:36.530Z,5.70
2019-04-23T04:32:42.361Z,4.97
2019-04-23T04:38:05.777Z,5.03
2019-04-23T04:48:19.969Z,4.93
2019-04-23T04:53:29.647Z,5.50
2019-04-23T04:58:31.736Z,5.00
2019-04-23T05:03:29.557Z,5.37
2019-04-23T05:13:59.771Z,4.87
2019-04-23T05:19:23.494Z,4.97
2019-04-23T05:24:14.936Z,6.10
2019-04-23T05:29:15.248Z,5.90
2019-04-23T05:34:27.453Z,5.60
2019-04-23T05:39:38.088Z,5.83
2019-04-23T05:44:47.959Z,5.53
2019-04-23T05:49:54.604Z,4.83
2019-04-23T05:55:13.276Z,5.67
2019-04-23T06:00:21.304Z,5.07
2019-04-23T06:05:25.065Z,5.40
2019-04-23T06:10:30.559Z,5.10
2019-04-23T06:15:31.740Z,5.37
2019-04-23T06:20:48.800Z,5.20
2019-04-23T06:31:02.283Z,5.00
2019-04-23T06:36:16.956Z,5.30
2019-04-23T06:41:21.338Z,5.83
2019-04-23T06:46:32.364Z,5.43
2019-04-23T06:51:46.495Z,6.20
2019-04-23T06:56:52.496Z,5.97
2019-04-23T07:01:57.999Z,5.80
2019-04-23T07:07:13.515Z,5.90
2019-04-23T07:11:54.103Z,5.67
2019-04-23T07:17:04.920Z,5.90
2019-04-23T07:22:16.128Z,6.20
2019-04-23T07:27:25.763Z,5.93
2019-04-23T07:32:35.952Z,5.47
2019-04-23T07:37:57.126Z,6.10
2019-04-23T07:43:11.653Z,5.67
2019-04-23T07:48:29.234Z,6.00
2019-04-23T07:53:53.593Z,6.67
2019-04-23T07:58:40.086Z,6.30
2019-04-23T08:03:51.221Z,6.60
2019-04-23T08:14:02.092Z,5.93
2019-04-23T08:19:07.751Z,6.07
2019-04-23T08:24:38.024Z,6.20
2019-04-23T08:29:36.312Z,5.80
2019-04-23T08:34:58.501Z,6.20
2019-04-23T08:40:07.851Z,6.50
2019-04-23T08:45:29.654Z,7.00
2019-04-23T08:50:50.719Z,5.70
2019-04-23T08:55:55.018Z,6.33
2019-04-23T09:00:58.895Z,6.10
2019-04-23T09:06:08.040Z,6.30
2019-04-23T09:11:30.131Z,5.83
2019-04-23T09:16:30.408Z,6.13
2019-04-23T09:21:37.404Z,6.10
2019-04-23T09:26:40.566Z,6.23
2019-04-23T09:32:15.087Z,6.33
2019-04-23T09:42:49.724Z,5.93
2019-04-23T09:47:57.278Z,5.90
2019-04-23T09:58:08.313Z,6.17
2019-04-23T10:03:05.084Z,5.70
2019-04-23T10:08:25.416Z,4.70
2019-04-23T10:13:26.133Z,5.20
2019-04-23T10:18:33.194Z,5.43
2019-04-23T10:23:41.270Z,4.73
2019-04-23T10:28:53.972Z,5.33
2019-04-23T10:34:02.194Z,4.73
2019-04-23T10:39:15.590Z,4.60
2019-04-23T10:44:21.355Z,4.00
2019-04-23T10:50:01.085Z,4.97
2019-04-23T10:55:08.563Z,4.73
2019-04-23T11:00:10.330Z,4.80
2019-04-23T11:05:29.103Z,4.10
2019-04-23T11:25:48.653Z,3.80
2019-04-23T11:30:56.779Z,3.57
2019-04-23T11:41:25.121Z,3.40
2019-04-23T11:46:39.832Z,3.40
2019-04-23T11:51:51.362Z,3.50
2019-04-23T12:02:07.171Z,3.67
2019-04-23T12:07:34.034Z,3.30
2019-04-23T12:12:39.893Z,3.10
2019-04-23T12:17:52.410Z,3.73
2019-04-23T12:23:04.606Z,3.40
2019-04-23T12:28:01.731Z,3.60
2019-04-23T12:33:21.745Z,3.00
2019-04-23T12:38:25.502Z,3.60
2019-04-23T12:43:28.773Z,3.13
2019-04-23T12:49:01.302Z,2.73
2019-04-23T12:53:56.324Z,3.17
2019-04-23T12:59:04.140Z,3.40
2019-04-23T13:04:20.071Z,2.90
2019-04-23T13:09:42.178Z,3.10
2019-04-23T13:14:42.066Z,2.53
2019-04-23T13:19:51.389Z,2.90
2019-04-23T13:24:56.017Z,2.47
2019-04-23T13:35:25.791Z,2.47
2019-04-23T13:40:22.793Z,2.30
2019-04-23T13:55:42.975Z,1.70
2019-04-23T14:01:01.347Z,2.10
2019-04-23T14:06:10.789Z,1.77
2019-04-23T14:11:20.983Z,1.90
2019-04-23T14:16:23.127Z,1.70
2019-04-23T14:21:24.855Z,1.70
2019-04-23T14:26:38.416Z,1.50
2019-04-23T14:31:44.671Z,1.70
2019-04-23T14:36:55.754Z,1.77
2019-04-23T14:41:53.924Z,1.83
2019-04-23T14:47:09.154Z,1.70
2019-04-23T14:52:16.895Z,1.40
2019-04-23T15:02:27.090Z,1.40
2019-04-23T15:12:38.583Z,1.30
2019-04-23T15:17:50.444Z,1.60
2019-04-23T15:23:13.763Z,1.30
2019-04-23T15:28:06.563Z,1.20
2019-04-23T15:33:37.023Z,1.30
2019-04-23T15:43:46.776Z,1.40
2019-04-23T15:49:14.740Z,1.27
2019-04-23T16:03:51.341Z,1.50
2019-04-23T16:09:16.305Z,1.87
2019-04-23T16:14:31.216Z,1.60
2019-04-23T16:19:43.964Z,1.57
2019-04-23T16:25:00.881Z,1.90
2019-04-23T16:30:10.455Z,1.53
2019-04-23T16:35:19.371Z,1.57
2019-04-23T16:45:31.853Z,1.10
2019-04-23T16:50:41.328Z,1.37
2019-04-23T16:55:49.935Z,1.57
2019-04-23T17:01:00.502Z,2.23
2019-04-23T17:06:04.019Z,1.80
2019-04-23T17:11:15.128Z,1.80
2019-04-23T17:21:24.076Z,1.33
2019-04-23T17:26:32.203Z,1.77
2019-04-23T17:31:41.569Z,1.50
2019-04-23T17:47:25.101Z,2.27
2019-04-23T17:52:28.981Z,2.13
2019-04-23T18:02:55.105Z,1.40
2019-04-23T18:18:19.778Z,1.63
2019-04-23T18:23:22.664Z,1.70
2019-04-23T18:28:31.722Z,1.70
2019-04-23T18:43:56.413Z,2.20
2019-04-23T18:49:20.154Z,2.40
2019-04-23T18:54:14.939Z,2.23
2019-04-23T18:59:30.372Z,2.10
2019-04-23T19:05:07.274Z,2.73
2019-04-23T19:10:10.756Z,3.23
2019-04-23T19:15:09.362Z,3.17
2019-04-23T19:20:19.243Z,2.93
2019-04-23T19:25:23.083Z,3.23
2019-04-23T19:30:41.498Z,2.73
2019-04-23T19:36:09.768Z,4.00
2019-04-23T19:40:56.671Z,3.50
2019-04-23T19:46:00.878Z,2.60
2019-04-23T19:51:08.910Z,2.67
2019-04-23T20:06:58.515Z,2.20
2019-04-23T20:17:17.596Z,3.00
2019-04-23T20:37:25.763Z,2.90
2019-04-23T20:42:27.187Z,2.40
2019-04-23T20:47:37.200Z,2.17
2019-04-23T20:52:41.143Z,2.00
2019-04-23T20:58:21.294Z,2.00
2019-04-23T21:09:11.686Z,1.97
2019-04-23T21:19:05.649Z,1.70
2019-04-23T21:24:05.771Z,2.30
2019-04-23T21:29:26.548Z,2.40
2019-04-23T21:34:28.103Z,1.80
2019-04-23T21:40:32.538Z,1.60
2019-04-23T21:44:59.238Z,1.53
2019-04-23T21:55:20.774Z,1.80
2019-04-23T22:00:24.416Z,1.80
2019-04-23T22:05:36.527Z,1.40
2019-04-23T22:11:12.063Z,2.07
2019-04-23T22:16:10.522Z,2.13
2019-04-23T22:21:05.110Z,1.70
2019-04-23T22:41:25.824Z,1.73
2019-04-23T22:46:51.122Z,1.97
2019-04-23T22:51:49.211Z,1.63
2019-04-23T22:56:51.860Z,1.90
2019-04-23T23:02:25.291Z,2.20
2019-04-23T23:07:02.985Z,2.13
2019-04-23T23:12:05.276Z,2.60
2019-04-23T23:17:11.510Z,1.77
2019-04-23T23:22:11.233Z,1.40
2019-04-23T23:27:15.525Z,2.17
2019-04-23T23:32:26.157Z,1.70
2019-04-23T23:37:28.072Z,2.03
2019-04-23T23:42:34.377Z,2.13
2019-04-23T23:47:38.085Z,2.20
2019-04-23T23:57:51.410Z,1.70
